Aérodrome :
LOGIN :

S'inscrire | Disclaimer

   EN    FR    IT 

 










Légende :    VFR   VFR Marginal   IFR   IFR Intensif   IFR Très Intensif
Visi : 
Plafond : 
>= 8 km
>= 3000ft
5 à 8 km
1000 à 3000 ft
1500m à 5 km
500 à 1000 ft
800 à 1500m
200 à 500 ft
< 800m
< 200 ft
Symboles :   Orages  Brouillard  Fortes neiges  Fortes précipitations  Vent > 20 kt
SIGMETs :   Divers  Orages  Givrage  Turbulence  Onde Orograph.  Cendres Volcan.






- Altitude de l'aérodrome : 412 ft
- Code IATA : ORE


LFOJ - Orleans

DERNIER METAR :
  • 140830Z AUTO 21008KT 9999 OVC013 05/04 Q0997 BECMG BKN017

METARs EXPIRÉS :
  • 140800Z AUTO 20008KT 170V230 9999 FEW009 BKN014 BKN019 04/03 Q0997 BECMG BKN007
  • 140730Z AUTO 20006KT 9999 OVC016 04/03 Q0997 BECMG BKN007
  • 140700Z AUTO 21008KT 9999 OVC015 04/04 Q0996 BECMG BKN007
  • 140630Z AUTO 20009KT 9999 OVC012 04/03 Q0996 BECMG BKN007
  • 140600Z AUTO 22011KT 9999 OVC009 04/04 Q0995 NOSIG

TAF TAF LFOJ
Valide du 14 à 09h jusqu'au 15 à 09h UTC


140800Z 1409/1509 18010KT 9999 OVC012
BECMG 1410/1412 BKN017
TEMPO 1412/1418 4900 -SHRA BKN010TCU
BECMG 1420/1422 3000 BR
PROB30 1500/1502 0900 FG VV///
PROB40
TEMPO 1503/1506 BKN008
BECMG 1504/1506 4900 RA



MET'MAP, la Météo Aéronautique d'un coup d'oeil ! - Copyright ORBIFLY Décembre 2007 - Disclaimer

ORBIFLY MET'MAP TEAM :

Programmation & Développement : Alexandra Zaïnal
Conception & Développement : Baudouin d'Aumeries
Co-Programmation & Développement : Marc-Olivier Méhu
Soutien technique & logistique : Manuel Goepfert

Contact : metmap@orbifly.com




SOURCES & CREDITS :

   NOAA